createdAt,value
2022-11-26T00:02:27.599Z,5.79
2022-11-26T00:04:56.149Z,5.77
2022-11-26T00:07:26.852Z,5.75
2022-11-26T00:09:55.256Z,5.75
2022-11-26T00:12:26.709Z,5.87
2022-11-26T00:14:54.042Z,5.82
2022-11-26T00:17:21.540Z,5.88
2022-11-26T00:19:48.527Z,5.99
2022-11-26T00:22:53.281Z,5.80
2022-11-26T00:25:23.149Z,5.91
2022-11-26T00:27:52.514Z,5.81
2022-11-26T00:30:28.045Z,5.70
2022-11-26T00:32:56.307Z,5.82
2022-11-26T00:35:23.790Z,5.77
2022-11-26T00:37:58.675Z,5.80
2022-11-26T00:40:28.026Z,5.70
2022-11-26T00:43:00.052Z,5.74
2022-11-26T00:45:30.209Z,5.77
2022-11-26T00:48:01.802Z,5.79
2022-11-26T00:50:40.122Z,5.58
2022-11-26T00:53:08.367Z,5.55
2022-11-26T00:55:38.844Z,5.61
2022-11-26T00:58:07.193Z,5.76
2022-11-26T01:00:35.595Z,5.73
2022-11-26T01:03:02.780Z,5.88
2022-11-26T01:05:32.086Z,5.86
2022-11-26T01:08:02.602Z,5.86
2022-11-26T01:10:30.194Z,5.93
2022-11-26T01:12:57.522Z,5.92
2022-11-26T01:15:26.218Z,5.83
2022-11-26T01:17:53.683Z,5.78
2022-11-26T01:20:26.750Z,5.88
2022-11-26T01:22:55.590Z,5.84
2022-11-26T01:25:24.907Z,5.81
2022-11-26T01:27:52.501Z,5.88
2022-11-26T01:30:30.778Z,5.93
2022-11-26T01:32:58.041Z,5.92
2022-11-26T01:35:24.931Z,5.83
2022-11-26T01:37:51.774Z,5.72
2022-11-26T01:40:18.616Z,5.79
2022-11-26T01:42:49.756Z,5.80
2022-11-26T01:45:22.624Z,5.76
2022-11-26T01:47:50.065Z,5.67
2022-11-26T01:50:31.701Z,5.63
2022-11-26T01:53:00.990Z,5.65
2022-11-26T01:55:36.110Z,5.64
2022-11-26T01:58:06.973Z,5.57
2022-11-26T02:00:34.100Z,5.60
2022-11-26T02:03:01.891Z,5.79
2022-11-26T02:05:33.850Z,5.70
2022-11-26T02:08:02.279Z,5.70
2022-11-26T02:10:29.130Z,5.62
2022-11-26T02:12:55.991Z,5.66
2022-11-26T02:15:27.874Z,5.65
2022-11-26T02:18:09.524Z,5.54
2022-11-26T02:21:06.088Z,5.48
2022-11-26T02:24:12.759Z,5.41
2022-11-26T02:26:54.819Z,5.38
2022-11-26T02:29:46.539Z,5.43
2022-11-26T02:32:22.871Z,5.44
2022-11-26T02:34:58.453Z,5.38
2022-11-26T02:37:33.950Z,5.30
2022-11-26T02:40:00.781Z,5.19
2022-11-26T02:42:32.977Z,5.14
2022-11-26T02:45:08.044Z,5.19
2022-11-26T02:47:38.037Z,5.19
2022-11-26T02:50:10.341Z,5.20
2022-11-26T02:52:39.984Z,5.26
2022-11-26T02:55:08.680Z,5.32
2022-11-26T02:57:43.721Z,5.27
2022-11-26T03:00:11.041Z,5.23
2022-11-26T03:03:09.143Z,5.27
2022-11-26T03:05:39.275Z,5.09
2022-11-26T03:25:46.121Z,4.55
2022-11-26T03:28:12.997Z,4.70
2022-11-26T03:30:39.808Z,4.74
2022-11-26T03:33:06.678Z,4.85
2022-11-26T03:35:33.496Z,4.94
2022-11-26T03:38:00.312Z,4.95
2022-11-26T03:40:27.245Z,5.02
2022-11-26T03:42:54.119Z,5.07
2022-11-26T03:45:21.066Z,5.14
2022-11-26T03:47:47.913Z,5.06
2022-11-26T03:50:14.796Z,5.05
2022-11-26T03:52:41.662Z,5.02
2022-11-26T03:55:09.446Z,5.01
2022-11-26T03:57:36.931Z,5.01
2022-11-26T04:00:06.712Z,5.12
2022-11-26T04:02:36.522Z,5.10
2022-11-26T04:05:04.443Z,5.01
2022-11-26T04:07:31.337Z,5.03
2022-11-26T04:09:58.433Z,5.03
2022-11-26T04:12:25.386Z,4.95
2022-11-26T04:14:53.576Z,5.07
2022-11-26T04:17:21.538Z,4.98
2022-11-26T04:19:49.038Z,4.83
2022-11-26T04:22:18.931Z,4.93
2022-11-26T04:24:46.012Z,4.99
2022-11-26T04:27:13.001Z,5.05
2022-11-26T04:29:40.035Z,4.92
2022-11-26T04:32:07.151Z,4.98
2022-11-26T04:34:34.085Z,5.03
2022-11-26T04:37:01.011Z,5.02
2022-11-26T04:39:27.930Z,4.94
2022-11-26T04:41:54.955Z,4.91
2022-11-26T04:44:21.939Z,4.97
2022-11-26T04:46:48.738Z,4.93
2022-11-26T04:49:15.708Z,4.98
2022-11-26T04:51:42.552Z,4.72
2022-11-26T04:54:12.891Z,4.75
2022-11-26T04:56:40.618Z,4.82
2022-11-26T04:59:07.943Z,4.70
2022-11-26T05:01:35.333Z,4.81
2022-11-26T05:04:02.304Z,4.74
2022-11-26T05:06:29.269Z,4.72
2022-11-26T05:08:56.277Z,4.72
2022-11-26T05:11:23.161Z,4.83
2022-11-26T05:13:50.151Z,4.81
2022-11-26T05:16:17.194Z,4.79
2022-11-26T05:18:44.083Z,4.80
2022-11-26T05:21:11.105Z,4.96
2022-11-26T05:23:38.145Z,4.91
2022-11-26T05:26:05.246Z,4.98
2022-11-26T05:28:32.142Z,4.90
2022-11-26T05:31:00.865Z,4.81
2022-11-26T05:33:28.210Z,4.80
2022-11-26T05:35:55.422Z,4.72
2022-11-26T05:38:22.420Z,4.64
2022-11-26T05:40:49.611Z,4.71
2022-11-26T05:43:16.953Z,4.76
2022-11-26T05:45:43.955Z,4.71
2022-11-26T05:48:10.966Z,4.87
2022-11-26T05:50:37.931Z,4.83
2022-11-26T05:53:05.158Z,4.66
2022-11-26T05:55:32.431Z,4.87
2022-11-26T05:57:59.479Z,5.00
2022-11-26T06:00:26.654Z,5.07
2022-11-26T06:02:53.748Z,4.93
2022-11-26T06:05:20.967Z,5.01
2022-11-26T06:07:47.885Z,4.97
2022-11-26T06:10:15.021Z,5.15
2022-11-26T06:12:42.037Z,6.19
2022-11-26T06:15:18.134Z,7.55
2022-11-26T06:17:45.127Z,8.30
2022-11-26T06:20:12.799Z,8.93
2022-11-26T06:22:41.701Z,9.33
2022-11-26T06:25:10.662Z,10.76
2022-11-26T06:27:38.148Z,11.49
2022-11-26T06:30:07.170Z,11.93
2022-11-26T06:32:34.129Z,11.60
2022-11-26T06:35:01.020Z,12.66
2022-11-26T06:37:27.877Z,13.12
2022-11-26T06:39:54.764Z,14.20
2022-11-26T06:42:21.571Z,13.82
2022-11-26T06:44:48.345Z,13.71
2022-11-26T06:47:15.166Z,12.73
2022-11-26T06:49:42.333Z,12.64
2022-11-26T06:52:09.198Z,12.03
2022-11-26T06:54:36.121Z,11.54
2022-11-26T06:57:03.042Z,10.71
2022-11-26T06:59:30.028Z,10.79
2022-11-26T07:01:57.036Z,11.65
2022-11-26T07:04:24.052Z,11.88
2022-11-26T07:06:50.940Z,10.89
2022-11-26T07:09:17.888Z,11.89
2022-11-26T07:11:44.799Z,11.91
2022-11-26T07:14:11.733Z,12.47
2022-11-26T07:16:38.687Z,12.80
2022-11-26T07:19:05.529Z,12.36
2022-11-26T07:21:32.413Z,12.52
2022-11-26T07:23:59.292Z,13.09
2022-11-26T07:26:26.250Z,12.94
2022-11-26T07:28:53.695Z,13.90
2022-11-26T07:31:22.891Z,14.58
2022-11-26T07:33:50.501Z,15.59
2022-11-26T07:36:26.614Z,16.73
2022-11-26T07:38:55.557Z,15.25
2022-11-26T07:41:23.169Z,15.44
2022-11-26T07:43:50.309Z,17.14
2022-11-26T07:46:20.275Z,16.42
2022-11-26T07:48:47.711Z,16.66
2022-11-26T07:51:24.147Z,16.46
2022-11-26T07:53:52.030Z,17.95
2022-11-26T07:56:19.677Z,19.68
2022-11-26T07:58:47.242Z,18.98
2022-11-26T08:01:17.082Z,19.43
2022-11-26T08:03:46.317Z,19.27
2022-11-26T08:06:16.914Z,16.90
2022-11-26T08:08:44.155Z,18.17
2022-11-26T08:11:17.447Z,17.95
2022-11-26T08:13:45.090Z,17.54
2022-11-26T08:16:13.380Z,16.50
2022-11-26T08:18:40.913Z,17.23
2022-11-26T08:21:08.172Z,16.19
2022-11-26T08:23:35.759Z,15.01
2022-11-26T08:26:23.734Z,15.34
2022-11-26T08:28:53.253Z,16.63
2022-11-26T08:31:20.443Z,17.31
2022-11-26T08:33:47.312Z,16.84
2022-11-26T08:36:14.258Z,18.61
2022-11-26T08:38:41.605Z,18.15
2022-11-26T08:41:11.683Z,18.42
2022-11-26T08:44:05.212Z,18.19
2022-11-26T08:46:26.361Z,17.53
2022-11-26T08:48:56.640Z,17.31
2022-11-26T08:51:24.916Z,19.43
2022-11-26T08:53:51.798Z,18.71
2022-11-26T08:56:18.825Z,19.94
2022-11-26T08:58:46.638Z,18.78
2022-11-26T09:01:19.648Z,20.36
2022-11-26T09:03:51.536Z,18.72
2022-11-26T09:06:19.651Z,19.75
2022-11-26T09:09:07.255Z,19.83
2022-11-26T09:11:37.341Z,19.10
2022-11-26T09:14:04.481Z,18.44
2022-11-26T09:16:32.148Z,18.92
2022-11-26T09:19:03.841Z,19.30
2022-11-26T09:21:31.191Z,19.69
2022-11-26T09:23:58.064Z,20.59
2022-11-26T09:26:25.441Z,19.64
2022-11-26T09:28:52.811Z,20.54
2022-11-26T09:31:20.542Z,21.97
2022-11-26T09:33:47.607Z,20.38
2022-11-26T09:36:16.602Z,20.69
2022-11-26T09:38:43.806Z,20.20
2022-11-26T09:41:29.548Z,20.97
2022-11-26T09:44:22.519Z,20.59
2022-11-26T09:47:28.553Z,20.45
2022-11-26T09:50:07.546Z,20.97
2022-11-26T09:52:40.145Z,20.83
2022-11-26T09:55:34.499Z,21.06
2022-11-26T09:58:27.019Z,21.02
2022-11-26T10:00:56.968Z,20.32
2022-11-26T10:03:31.680Z,20.61
2022-11-26T10:06:19.938Z,21.08
2022-11-26T10:09:11.198Z,23.08
2022-11-26T10:11:52.579Z,23.46
2022-11-26T10:14:25.568Z,23.25
2022-11-26T10:16:58.391Z,21.74
2022-11-26T10:19:31.439Z,23.82
2022-11-26T10:22:03.593Z,22.74
2022-11-26T10:24:42.239Z,22.21
2022-11-26T10:27:24.903Z,24.88
2022-11-26T10:30:09.702Z,25.29
2022-11-26T10:32:41.709Z,25.67
2022-11-26T10:35:15.720Z,26.49
2022-11-26T10:37:42.848Z,23.09
2022-11-26T10:40:25.795Z,23.43
2022-11-26T10:43:10.417Z,22.64
2022-11-26T10:45:40.333Z,22.23
2022-11-26T10:48:19.206Z,20.46
2022-11-26T10:51:06.615Z,24.34
2022-11-26T10:53:55.960Z,22.56
2022-11-26T10:56:48.120Z,20.98
2022-11-26T10:59:25.428Z,20.26
2022-11-26T11:01:56.248Z,20.94
2022-11-26T11:04:24.582Z,21.61
2022-11-26T11:06:51.466Z,21.90
2022-11-26T11:09:38.052Z,23.12
2022-11-26T11:12:11.072Z,22.37
2022-11-26T11:14:43.081Z,19.28
2022-11-26T11:17:31.932Z,20.03
2022-11-26T11:20:22.237Z,20.93
2022-11-26T11:22:57.845Z,20.04
2022-11-26T11:25:28.501Z,19.98
2022-11-26T11:28:02.143Z,19.26
2022-11-26T11:30:32.861Z,20.31
2022-11-26T11:33:12.040Z,19.20
2022-11-26T11:35:39.007Z,17.88
2022-11-26T11:38:21.981Z,16.18
2022-11-26T11:40:49.441Z,13.97
2022-11-26T11:43:19.851Z,12.71
2022-11-26T11:46:11.129Z,13.30
2022-11-26T11:48:37.913Z,14.66
2022-11-26T11:51:10.894Z,14.94
2022-11-26T11:54:00.713Z,15.39
2022-11-26T11:57:05.765Z,15.40
2022-11-26T12:00:14.690Z,17.07
2022-11-26T12:03:09.387Z,18.66
2022-11-26T12:06:21.542Z,21.70
2022-11-26T12:09:20.289Z,19.59
2022-11-26T12:12:19.396Z,17.72
2022-11-26T12:14:56.310Z,16.10
2022-11-26T12:17:28.998Z,15.48
2022-11-26T12:20:24.007Z,13.72
2022-11-26T12:22:59.246Z,13.14
2022-11-26T12:25:37.528Z,12.36
2022-11-26T12:28:25.136Z,11.29
2022-11-26T12:31:04.264Z,10.40
2022-11-26T12:33:55.363Z,10.25
2022-11-26T12:36:43.496Z,10.01
2022-11-26T12:39:23.723Z,9.81
2022-11-26T12:41:58.980Z,9.88
2022-11-26T12:44:39.759Z,9.90
2022-11-26T12:47:31.617Z,9.59
2022-11-26T12:50:12.043Z,9.44
2022-11-26T12:52:47.634Z,9.49
2022-11-26T12:55:22.280Z,9.58
2022-11-26T12:57:55.228Z,9.46
2022-11-26T13:00:37.085Z,9.27
2022-11-26T13:03:10.645Z,9.29
2022-11-26T13:05:52.821Z,9.19
2022-11-26T13:08:51.938Z,9.16
2022-11-26T13:11:25.332Z,9.09
2022-11-26T13:14:17.232Z,9.05
2022-11-26T13:16:44.149Z,9.07
2022-11-26T13:19:18.905Z,9.05
2022-11-26T13:22:07.802Z,8.89
2022-11-26T13:24:59.720Z,8.87
2022-11-26T13:27:52.279Z,8.90
2022-11-26T13:30:21.696Z,8.91
2022-11-26T13:33:16.234Z,8.82
2022-11-26T13:36:27.645Z,8.75
2022-11-26T13:39:13.716Z,8.72
2022-11-26T13:41:58.480Z,8.78
2022-11-26T13:44:57.429Z,8.71
2022-11-26T13:47:39.310Z,8.80
2022-11-26T13:50:08.409Z,8.92
2022-11-26T13:53:00.041Z,8.94
2022-11-26T13:55:53.788Z,8.98
2022-11-26T13:58:36.936Z,8.99
2022-11-26T14:01:29.976Z,8.99
2022-11-26T14:03:57.965Z,8.89
2022-11-26T14:06:24.961Z,8.93
2022-11-26T14:08:53.414Z,9.02
2022-11-26T14:11:41.977Z,9.01
2022-11-26T14:14:23.944Z,9.02
2022-11-26T14:17:15.926Z,8.85
2022-11-26T14:19:42.858Z,8.76
2022-11-26T14:22:21.967Z,8.61
2022-11-26T14:24:51.565Z,8.46
2022-11-26T14:27:23.116Z,8.39
2022-11-26T14:30:07.894Z,8.46
2022-11-26T14:32:42.528Z,8.31
2022-11-26T14:35:33.905Z,7.98
2022-11-26T14:38:04.533Z,7.94
2022-11-26T14:40:35.706Z,7.93
2022-11-26T14:43:16.937Z,7.89
2022-11-26T14:45:58.817Z,7.75
2022-11-26T14:48:28.324Z,7.70
2022-11-26T14:50:58.642Z,7.70
2022-11-26T14:53:32.405Z,7.66
2022-11-26T14:55:59.862Z,7.51
2022-11-26T14:58:37.837Z,7.54
2022-11-26T15:01:22.168Z,7.69
2022-11-26T15:04:06.455Z,7.79
2022-11-26T15:06:43.040Z,7.65
2022-11-26T15:09:16.000Z,7.58
2022-11-26T15:27:54.949Z,6.37
2022-11-26T15:30:24.035Z,6.46
2022-11-26T15:32:58.277Z,6.59
2022-11-26T15:35:25.216Z,6.75
2022-11-26T15:37:52.115Z,6.74
2022-11-26T15:40:26.475Z,6.78
2022-11-26T15:42:58.865Z,6.77
2022-11-26T15:45:36.126Z,6.85
2022-11-26T15:48:04.121Z,6.78
2022-11-26T15:50:35.156Z,6.76
2022-11-26T15:53:07.642Z,6.80
2022-11-26T15:55:37.031Z,6.78
2022-11-26T15:58:08.962Z,6.74
2022-11-26T16:00:41.054Z,6.67
2022-11-26T16:03:42.685Z,6.63
2022-11-26T16:06:29.075Z,6.55
2022-11-26T16:09:14.871Z,6.33
2022-11-26T16:11:57.535Z,6.23
2022-11-26T16:14:31.257Z,6.07
2022-11-26T16:17:24.842Z,5.90
2022-11-26T16:19:56.438Z,5.80
2022-11-26T16:22:28.636Z,5.73
2022-11-26T16:25:18.873Z,5.77
2022-11-26T16:28:21.592Z,5.74
2022-11-26T16:30:48.649Z,5.69
2022-11-26T16:33:15.478Z,5.66
2022-11-26T16:35:46.708Z,5.68
2022-11-26T16:38:25.172Z,5.73
2022-11-26T16:40:52.782Z,5.76
2022-11-26T16:43:20.254Z,5.74
2022-11-26T16:45:48.788Z,5.75
2022-11-26T16:48:27.710Z,5.70
2022-11-26T16:50:56.010Z,5.68
2022-11-26T16:53:23.616Z,5.67
2022-11-26T16:55:52.238Z,5.72
2022-11-26T16:58:28.671Z,5.71
2022-11-26T17:00:56.876Z,5.60
2022-11-26T17:03:24.695Z,5.65
2022-11-26T17:05:54.584Z,5.57
2022-11-26T17:08:21.395Z,5.53
2022-11-26T17:10:48.966Z,5.50
2022-11-26T17:13:15.942Z,5.45
2022-11-26T17:15:43.986Z,5.39
2022-11-26T17:18:20.853Z,5.44
2022-11-26T17:20:48.402Z,5.46
2022-11-26T17:23:15.635Z,5.35
2022-11-26T17:25:50.649Z,5.32
2022-11-26T17:28:17.598Z,5.27
2022-11-26T17:30:45.103Z,5.18
2022-11-26T17:33:12.292Z,5.17
2022-11-26T17:35:39.296Z,5.13
2022-11-26T17:38:16.948Z,5.16
2022-11-26T17:40:44.933Z,5.30
2022-11-26T17:43:12.229Z,5.40
2022-11-26T17:45:40.007Z,5.41
2022-11-26T17:48:07.414Z,5.43
2022-11-26T17:50:36.306Z,5.63
2022-11-26T17:53:03.855Z,5.67
2022-11-26T17:55:31.467Z,5.64
2022-11-26T17:57:58.540Z,5.65
2022-11-26T18:00:28.581Z,5.66
2022-11-26T18:02:56.130Z,5.81
2022-11-26T18:05:23.538Z,5.91
2022-11-26T18:07:50.412Z,5.83
2022-11-26T18:10:19.849Z,5.80
2022-11-26T18:12:47.347Z,5.77
2022-11-26T18:15:22.999Z,5.83
2022-11-26T18:17:53.030Z,5.89
2022-11-26T18:20:23.024Z,5.94
2022-11-26T18:22:51.727Z,5.89
2022-11-26T18:25:18.814Z,5.99
2022-11-26T18:27:45.815Z,6.13
2022-11-26T18:30:13.439Z,5.98
2022-11-26T18:32:40.644Z,6.04
2022-11-26T18:35:08.103Z,6.08
2022-11-26T18:37:35.968Z,6.08
2022-11-26T18:40:03.246Z,6.25
2022-11-26T18:42:37.212Z,6.19
2022-11-26T18:45:07.193Z,6.16
2022-11-26T18:47:34.165Z,6.02
2022-11-26T18:50:01.041Z,5.94
2022-11-26T18:52:27.939Z,6.01
2022-11-26T18:54:55.040Z,5.88
2022-11-26T18:57:21.886Z,5.83
2022-11-26T18:59:50.598Z,5.84
2022-11-26T19:02:17.760Z,5.91
2022-11-26T19:04:44.785Z,6.03
2022-11-26T19:07:12.303Z,5.97
2022-11-26T19:09:39.496Z,5.92
2022-11-26T19:12:06.846Z,5.91
2022-11-26T19:14:33.676Z,5.91
2022-11-26T19:17:01.255Z,5.87
2022-11-26T19:19:28.320Z,5.73
2022-11-26T19:22:00.922Z,5.79
2022-11-26T19:24:29.040Z,5.77
2022-11-26T19:26:56.178Z,5.79
2022-11-26T19:29:23.094Z,5.95
2022-11-26T19:31:49.916Z,6.07
2022-11-26T19:34:16.942Z,5.90
2022-11-26T19:36:48.519Z,5.87
2022-11-26T19:39:16.393Z,5.92
2022-11-26T19:41:43.438Z,6.00
2022-11-26T19:44:10.558Z,5.97
2022-11-26T19:46:41.108Z,5.93
2022-11-26T19:49:11.952Z,5.99
2022-11-26T19:51:39.340Z,6.03
2022-11-26T19:54:06.394Z,6.03
2022-11-26T19:56:34.157Z,6.04
2022-11-26T19:59:02.340Z,6.10
2022-11-26T20:01:32.363Z,6.02
2022-11-26T20:04:01.059Z,5.99
2022-11-26T20:06:29.432Z,6.06
2022-11-26T20:08:58.415Z,6.05
2022-11-26T20:11:26.212Z,6.06
2022-11-26T20:13:53.428Z,6.01
2022-11-26T20:16:23.405Z,6.02
2022-11-26T20:18:50.951Z,6.08
2022-11-26T20:21:21.738Z,6.21
2022-11-26T20:23:49.932Z,6.07
2022-11-26T20:26:21.813Z,6.01
2022-11-26T20:28:49.771Z,5.96
2022-11-26T20:31:23.036Z,5.85
2022-11-26T20:33:51.408Z,5.82
2022-11-26T20:36:21.093Z,5.85
2022-11-26T20:38:52.524Z,5.80
2022-11-26T20:41:19.939Z,5.86
2022-11-26T20:43:46.837Z,5.84
2022-11-26T20:46:14.609Z,5.82
2022-11-26T20:48:43.029Z,5.82
2022-11-26T20:51:13.048Z,5.86
2022-11-26T20:53:41.609Z,5.95
2022-11-26T20:56:09.103Z,5.80
2022-11-26T20:58:36.325Z,5.89
2022-11-26T21:01:03.743Z,5.90
2022-11-26T21:03:31.679Z,5.88
2022-11-26T21:06:02.841Z,5.86
2022-11-26T21:08:29.718Z,5.88
2022-11-26T21:10:56.719Z,5.86
2022-11-26T21:13:23.721Z,5.90
2022-11-26T21:15:50.592Z,5.92
2022-11-26T21:18:17.470Z,5.88
2022-11-26T21:20:44.664Z,5.80
2022-11-26T21:23:13.188Z,5.74
2022-11-26T21:25:42.126Z,5.75
2022-11-26T21:28:10.634Z,5.75
2022-11-26T21:30:38.855Z,5.81
2022-11-26T21:33:09.344Z,5.75
2022-11-26T21:35:37.383Z,5.67
2022-11-26T21:38:05.967Z,5.72
2022-11-26T21:40:33.880Z,5.73
2022-11-26T21:43:00.838Z,5.71
2022-11-26T21:45:27.916Z,5.77
2022-11-26T21:47:55.048Z,5.74
2022-11-26T21:50:21.975Z,5.79
2022-11-26T21:52:48.783Z,5.82
2022-11-26T21:55:15.809Z,5.78
2022-11-26T21:57:42.689Z,5.80
2022-11-26T22:00:10.081Z,5.85
2022-11-26T22:02:37.170Z,5.85
2022-11-26T22:05:04.332Z,5.88
2022-11-26T22:07:31.770Z,5.85
2022-11-26T22:09:58.792Z,5.86
2022-11-26T22:12:25.758Z,5.83
2022-11-26T22:14:52.594Z,5.84
2022-11-26T22:17:19.588Z,5.88
2022-11-26T22:19:46.852Z,5.80
2022-11-26T22:22:13.760Z,5.79
2022-11-26T22:24:40.719Z,5.89
2022-11-26T22:27:07.581Z,5.86
2022-11-26T22:29:34.445Z,5.86
2022-11-26T22:32:01.234Z,5.86
2022-11-26T22:34:29.216Z,5.89
2022-11-26T22:36:56.054Z,5.88
2022-11-26T22:39:23.021Z,5.86
2022-11-26T22:41:49.872Z,5.88
2022-11-26T22:44:17.162Z,5.87
2022-11-26T22:46:44.647Z,5.85
2022-11-26T22:49:16.128Z,5.92
2022-11-26T22:51:43.344Z,5.94
2022-11-26T22:54:12.662Z,5.97
2022-11-26T22:56:39.547Z,5.85
2022-11-26T22:59:08.392Z,5.92
2022-11-26T23:01:36.974Z,5.91
2022-11-26T23:04:06.702Z,5.86
2022-11-26T23:06:35.418Z,5.87
2022-11-26T23:09:04.109Z,5.93
2022-11-26T23:11:33.533Z,6.02
2022-11-26T23:14:02.146Z,6.01
2022-11-26T23:16:29.344Z,5.93
2022-11-26T23:18:57.278Z,5.91
2022-11-26T23:21:26.962Z,6.04
2022-11-26T23:23:54.407Z,6.06
2022-11-26T23:26:27.158Z,5.99
2022-11-26T23:28:56.042Z,5.95
2022-11-26T23:31:28.756Z,5.95
2022-11-26T23:33:55.846Z,5.91
2022-11-26T23:36:23.851Z,5.91
2022-11-26T23:38:50.789Z,5.89
2022-11-26T23:41:17.725Z,5.86
2022-11-26T23:43:45.102Z,5.76
2022-11-26T23:46:22.492Z,5.98
2022-11-26T23:48:50.113Z,5.82
2022-11-26T23:51:21.040Z,5.88
2022-11-26T23:53:49.489Z,5.89
2022-11-26T23:56:20.434Z,5.83
2022-11-26T23:58:54.649Z,5.81
